Time;durP1;ratioP1;P1;durP2;ratioP2;P2;SDS_P1;SDS_P2;PMS_P1;PMS_P2;Temp;Humidity;BMP_temperature;BMP_pressure;BME280_temperature;BME280_humidity;BME280_pressure;Samples;Min_cycle;Max_cycle;Signal;HPM_P1;HPM_P2
2021/01/19 00:01:09;;;;;;;12.23;6.33;;;0.10;97.80;;;;;;5139972;27;20207;-35
2021/01/19 00:03:34;;;;;;;12.80;7.10;;;0.00;97.90;;;;;;5140022;27;20432;-37
2021/01/19 00:06:01;;;;;;;9.10;6.87;;;0.00;97.80;;;;;;5140708;27;20857;-37
2021/01/19 00:08:26;;;;;;;9.10;6.17;;;0.00;97.90;;;;;;5140262;27;20271;-37
2021/01/19 00:10:54;;;;;;;4.90;4.37;;;0.00;97.90;;;;;;5139994;27;20429;-39
2021/01/19 00:13:22;;;;;;;7.70;5.27;;;0.00;97.90;;;;;;5140482;27;20569;-37
2021/01/19 00:15:48;;;;;;;7.67;4.77;;;0.10;97.90;;;;;;5141283;27;20479;-37
2021/01/19 00:18:15;;;;;;;7.03;4.80;;;0.00;97.80;;;;;;5139807;27;20593;-37
2021/01/19 00:20:41;;;;;;;6.97;5.00;;;0.00;97.70;;;;;;5137633;27;20408;-37
2021/01/19 00:23:07;;;;;;;10.63;7.33;;;0.00;97.60;;;;;;5140076;27;20436;-36
2021/01/19 00:25:35;;;;;;;6.53;4.47;;;0.10;97.80;;;;;;5139772;27;20471;-37
2021/01/19 00:28:01;;;;;;;11.40;7.20;;;0.10;97.70;;;;;;5139911;27;20565;-36
2021/01/19 00:30:27;;;;;;;7.63;5.30;;;0.10;97.70;;;;;;5140111;27;20412;-38
2021/01/19 00:32:53;;;;;;;5.63;4.03;;;0.00;97.60;;;;;;5140981;27;20222;-37
2021/01/19 00:35:19;;;;;;;6.60;5.00;;;0.00;97.70;;;;;;5139820;27;20907;-37
2021/01/19 00:37:44;;;;;;;7.50;4.33;;;0.00;97.90;;;;;;5139187;27;20475;-37
2021/01/19 00:40:11;;;;;;;10.10;5.67;;;0.00;98.00;;;;;;5138580;27;20193;-37
2021/01/19 00:42:36;;;;;;;7.20;5.90;;;0.00;98.00;;;;;;5139670;27;20202;-39
2021/01/19 00:45:03;;;;;;;7.70;4.43;;;0.00;97.90;;;;;;5139644;27;20464;-37
2021/01/19 00:47:28;;;;;;;8.00;5.00;;;0.10;98.00;;;;;;5139136;27;20227;-37
2021/01/19 00:49:54;;;;;;;5.77;4.10;;;0.00;97.80;;;;;;5139638;27;20702;-37
2021/01/19 00:52:20;;;;;;;7.17;4.77;;;0.10;97.80;;;;;;5138512;27;20476;-36
2021/01/19 00:54:46;;;;;;;7.10;4.53;;;0.10;97.80;;;;;;5139268;27;20815;-36
2021/01/19 00:57:11;;;;;;;11.00;4.30;;;0.00;97.80;;;;;;5139808;27;20576;-38
2021/01/19 00:59:37;;;;;;;4.77;4.13;;;0.00;97.90;;;;;;5137636;27;20465;-38
2021/01/19 01:02:03;;;;;;;6.57;4.00;;;0.10;98.00;;;;;;5139485;27;20202;-37
2021/01/19 01:04:29;;;;;;;6.80;4.40;;;0.10;97.90;;;;;;5138505;27;20428;-37
2021/01/19 01:06:54;;;;;;;5.63;3.60;;;0.10;97.70;;;;;;5139130;27;20194;-38
2021/01/19 01:09:21;;;;;;;5.27;4.13;;;0.10;97.60;;;;;;5139162;27;20335;-37
2021/01/19 01:11:46;;;;;;;5.43;4.10;;;0.00;97.70;;;;;;5138986;27;20202;-37
2021/01/19 01:14:13;;;;;;;6.40;4.30;;;0.00;97.70;;;;;;5137152;27;20885;-38
2021/01/19 01:16:39;;;;;;;5.67;3.80;;;0.00;97.70;;;;;;5138119;27;20424;-37
2021/01/19 01:19:07;;;;;;;7.80;4.30;;;0.10;97.70;;;;;;5133488;27;20425;-37
2021/01/19 01:21:39;;;;;;;8.70;4.20;;;0.00;97.50;;;;;;5139185;27;20702;-38
2021/01/19 01:24:06;;;;;;;5.20;4.37;;;-0.10;97.50;;;;;;5138787;27;20910;-39
2021/01/19 01:26:32;;;;;;;5.03;3.80;;;-0.10;97.80;;;;;;5139268;27;20476;-38
2021/01/19 01:28:58;;;;;;;7.40;3.90;;;-0.10;97.70;;;;;;5138232;27;20417;-37
2021/01/19 01:31:23;;;;;;;5.80;3.97;;;-0.20;97.80;;;;;;5138978;27;20441;-37
2021/01/19 01:33:49;;;;;;;6.70;3.70;;;-0.10;97.70;;;;;;5138627;27;20489;-36
2021/01/19 01:36:15;;;;;;;5.20;4.10;;;-0.10;97.60;;;;;;5138529;27;20194;-38
2021/01/19 01:38:42;;;;;;;4.90;4.20;;;-0.10;97.60;;;;;;5137919;27;20263;-37
2021/01/19 01:41:12;;;;;;;5.00;4.20;;;-0.20;97.60;;;;;;5137904;27;20463;-37
2021/01/19 01:43:38;;;;;;;8.53;4.77;;;-0.20;97.80;;;;;;5137847;27;20523;-36
2021/01/19 01:46:04;;;;;;;5.47;4.37;;;-0.30;97.80;;;;;;5138778;27;20527;-37
2021/01/19 01:48:30;;;;;;;6.93;4.57;;;-0.20;97.70;;;;;;5140250;27;20191;-38
2021/01/19 01:50:55;;;;;;;8.20;5.37;;;-0.30;97.70;;;;;;5139829;28;20180;-38
2021/01/19 01:53:21;;;;;;;7.33;4.07;;;-0.20;97.80;;;;;;5137950;27;20424;-37
2021/01/19 01:55:47;;;;;;;6.20;4.50;;;-0.20;97.60;;;;;;5138845;28;20255;-39
2021/01/19 01:58:13;;;;;;;7.40;4.63;;;-0.20;97.50;;;;;;5137343;28;20201;-38
2021/01/19 02:00:39;;;;;;;7.00;4.33;;;-0.20;97.50;;;;;;5139114;28;20202;-37
2021/01/19 02:03:04;;;;;;;6.77;5.67;;;-0.10;97.40;;;;;;5140518;28;20489;-37
2021/01/19 02:05:30;;;;;;;6.13;4.10;;;-0.10;97.30;;;;;;5140168;28;20460;-39
2021/01/19 02:08:19;;;;;;;5.17;3.97;;;-0.10;97.20;;;;;;5137498;27;20201;-37
2021/01/19 02:11:11;;;;;;;8.03;3.63;;;-0.20;97.40;;;;;;5138756;27;20179;-38
2021/01/19 02:13:50;;;;;;;6.00;4.13;;;-0.20;97.60;;;;;;5138167;28;20412;-38
2021/01/19 02:16:28;;;;;;;5.60;4.90;;;-0.20;97.40;;;;;;5137103;28;20420;-37
2021/01/19 02:19:03;;;;;;;8.10;4.40;;;-0.20;97.30;;;;;;5138565;27;20429;-36
2021/01/19 02:21:38;;;;;;;6.43;3.97;;;-0.20;97.40;;;;;;5138807;28;20790;-37
2021/01/19 02:24:16;;;;;;;7.00;3.93;;;-0.20;97.40;;;;;;5137856;28;20403;-37
2021/01/19 02:26:59;;;;;;;4.40;3.50;;;-0.10;97.30;;;;;;5136607;28;20480;-37
2021/01/19 02:29:52;;;;;;;7.73;3.80;;;-0.10;97.20;;;;;;5138193;28;20417;-38
2021/01/19 02:32:36;;;;;;;7.70;4.20;;;-0.10;97.10;;;;;;5138153;28;20515;-37
2021/01/19 02:35:15;;;;;;;4.70;3.57;;;0.00;97.30;;;;;;5137301;28;20431;-38
2021/01/19 02:38:02;;;;;;;4.23;3.33;;;-0.10;97.30;;;;;;5136847;27;20436;-36
2021/01/19 02:40:28;;;;;;;4.83;3.33;;;0.00;97.10;;;;;;5136816;28;20416;-38
2021/01/19 02:43:11;;;;;;;5.40;3.27;;;0.00;97.00;;;;;;5138511;28;20455;-38
2021/01/19 02:45:39;;;;;;;4.57;2.97;;;0.00;96.90;;;;;;5136616;28;20900;-37
2021/01/19 02:48:05;;;;;;;4.90;3.03;;;0.10;96.70;;;;;;5138125;27;20667;-37
2021/01/19 02:50:32;;;;;;;5.90;2.70;;;0.10;96.60;;;;;;5137490;27;20833;-37
2021/01/19 02:53:00;;;;;;;4.20;3.17;;;0.10;96.50;;;;;;5137526;27;20779;-38
2021/01/19 02:55:28;;;;;;;4.67;3.40;;;0.10;96.70;;;;;;5136614;28;20413;-38
2021/01/19 02:58:20;;;;;;;4.33;3.30;;;0.10;96.70;;;;;;5138045;28;20459;-39
2021/01/19 03:01:01;;;;;;;3.80;3.23;;;0.10;96.50;;;;;;5138064;28;20428;-37
2021/01/19 03:03:30;;;;;;;5.40;3.57;;;0.20;96.50;;;;;;5138525;27;20828;-35
2021/01/19 03:05:56;;;;;;;7.50;3.50;;;0.10;96.40;;;;;;5139966;27;20456;-36
2021/01/19 03:08:22;;;;;;;6.30;3.53;;;0.10;96.50;;;;;;5140788;27;20417;-37
2021/01/19 03:10:48;;;;;;;5.93;3.97;;;0.00;96.60;;;;;;5139934;27;20413;-37
2021/01/19 03:13:14;;;;;;;5.90;3.97;;;0.00;96.70;;;;;;5140805;27;20201;-38
2021/01/19 03:15:41;;;;;;;5.70;4.00;;;0.10;96.80;;;;;;5140764;27;20468;-37
2021/01/19 03:18:08;;;;;;;5.60;3.93;;;0.10;96.80;;;;;;5141093;27;20433;-37
2021/01/19 03:20:34;;;;;;;8.63;4.33;;;0.10;96.70;;;;;;5140045;27;20416;-38
2021/01/19 03:23:00;;;;;;;3.97;3.57;;;0.10;96.60;;;;;;5139213;27;20444;-36
2021/01/19 03:25:27;;;;;;;4.00;3.60;;;0.00;96.70;;;;;;5139319;27;20575;-38
2021/01/19 03:27:53;;;;;;;6.53;3.30;;;0.10;96.70;;;;;;5139838;27;20516;-36
2021/01/19 03:30:19;;;;;;;7.73;3.77;;;0.10;96.70;;;;;;5140112;27;20383;-38
2021/01/19 03:32:45;;;;;;;4.43;3.70;;;0.00;96.80;;;;;;5138877;27;20187;-38
2021/01/19 03:35:11;;;;;;;6.50;4.10;;;0.00;96.70;;;;;;5140004;27;20428;-39
2021/01/19 03:37:37;;;;;;;6.10;3.87;;;0.00;96.90;;;;;;5141289;27;20432;-37
2021/01/19 03:40:04;;;;;;;3.90;3.60;;;0.10;96.70;;;;;;5141151;27;20487;-37
2021/01/19 03:42:30;;;;;;;7.30;4.40;;;0.10;96.80;;;;;;5140727;27;20572;-37
2021/01/19 03:44:56;;;;;;;10.63;4.53;;;0.00;96.70;;;;;;5140617;27;20745;-36
2021/01/19 03:47:21;;;;;;;9.53;3.80;;;0.10;96.70;;;;;;5132393;27;20535;-38
2021/01/19 03:49:47;;;;;;;5.27;3.57;;;0.10;96.80;;;;;;5130629;27;20187;-38
2021/01/19 03:52:13;;;;;;;5.80;3.93;;;0.10;96.80;;;;;;5129928;27;20208;-37
2021/01/19 03:54:39;;;;;;;6.83;4.30;;;0.10;96.70;;;;;;5130963;27;20261;-38
2021/01/19 03:57:05;;;;;;;5.60;3.93;;;0.00;96.70;;;;;;5124626;27;20843;-39
2021/01/19 03:59:30;;;;;;;4.17;3.70;;;0.10;96.80;;;;;;5123642;27;20198;-37
2021/01/19 04:01:56;;;;;;;6.67;4.07;;;0.10;96.80;;;;;;5127552;27;20425;-36
2021/01/19 04:04:22;;;;;;;4.10;3.50;;;0.00;96.80;;;;;;5129578;27;20241;-35
2021/01/19 04:06:48;;;;;;;7.43;3.30;;;-0.10;96.70;;;;;;5124359;27;20534;-38
2021/01/19 04:09:15;;;;;;;6.00;3.93;;;-0.10;96.80;;;;;;5127734;27;20580;-37
2021/01/19 04:11:41;;;;;;;5.20;3.97;;;-0.10;96.60;;;;;;5134977;27;20202;-36
2021/01/19 04:14:07;;;;;;;5.70;3.50;;;-0.20;96.80;;;;;;5131388;27;20486;-35
2021/01/19 04:16:32;;;;;;;4.53;3.53;;;-0.10;96.90;;;;;;5118928;28;20445;-36
2021/01/19 04:18:58;;;;;;;4.63;3.97;;;-0.10;97.00;;;;;;5127240;27;20191;-37
2021/01/19 04:21:25;;;;;;;6.37;4.20;;;-0.20;96.80;;;;;;5139951;27;20587;-37
2021/01/19 04:23:51;;;;;;;5.20;3.63;;;-0.20;96.80;;;;;;5140040;27;20290;-37
2021/01/19 04:26:17;;;;;;;3.90;3.50;;;-0.20;96.80;;;;;;5139817;27;20806;-36
2021/01/19 04:28:42;;;;;;;7.03;4.30;;;-0.20;96.80;;;;;;5132958;27;20195;-37
2021/01/19 04:31:08;;;;;;;5.20;4.70;;;-0.20;96.80;;;;;;5119155;28;20176;-37
2021/01/19 04:33:34;;;;;;;5.80;4.67;;;-0.20;96.90;;;;;;5119179;28;20465;-37
2021/01/19 04:36:00;;;;;;;4.50;3.70;;;-0.20;96.90;;;;;;5125062;27;20428;-37
2021/01/19 04:38:26;;;;;;;7.93;3.70;;;-0.20;96.90;;;;;;5138335;27;20225;-38
2021/01/19 04:40:52;;;;;;;6.23;3.77;;;-0.20;96.70;;;;;;5128260;27;20425;-37
2021/01/19 04:43:18;;;;;;;5.73;4.30;;;-0.20;96.80;;;;;;5120560;27;20245;-38
2021/01/19 04:45:44;;;;;;;6.27;3.90;;;-0.30;96.90;;;;;;5117198;28;20464;-37
2021/01/19 04:48:10;;;;;;;6.43;3.63;;;-0.30;96.90;;;;;;5118048;27;20273;-37
2021/01/19 04:50:37;;;;;;;5.93;4.40;;;-0.30;97.00;;;;;;5138814;27;20521;-38
2021/01/19 04:53:03;;;;;;;7.20;4.10;;;-0.20;96.90;;;;;;5138355;27;20489;-38
2021/01/19 04:55:34;;;;;;;6.20;4.60;;;-0.30;96.90;;;;;;5138360;27;20425;-38
2021/01/19 04:58:06;;;;;;;6.10;4.47;;;-0.20;96.80;;;;;;5138194;27;20498;-37
2021/01/19 05:00:34;;;;;;;7.60;4.23;;;-0.30;96.80;;;;;;5136454;27;20762;-37
2021/01/19 05:03:20;;;;;;;6.13;4.30;;;-0.30;96.90;;;;;;5131968;27;20836;-36
2021/01/19 05:05:59;;;;;;;5.63;4.57;;;-0.40;96.80;;;;;;5117726;28;20898;-38
2021/01/19 05:08:46;;;;;;;7.20;5.30;;;-0.40;96.90;;;;;;5121016;27;20433;-37
2021/01/19 05:11:21;;;;;;;5.73;3.77;;;-0.40;96.90;;;;;;5124067;27;20424;-39
2021/01/19 05:13:51;;;;;;;7.27;5.30;;;-0.50;97.00;;;;;;5138096;27;20408;-38
2021/01/19 05:16:19;;;;;;;4.27;3.70;;;-0.50;97.00;;;;;;5138326;27;20420;-36
2021/01/19 05:18:46;;;;;;;5.50;4.60;;;-0.60;97.20;;;;;;5133934;27;20463;-37
2021/01/19 05:21:12;;;;;;;7.30;4.60;;;-0.50;97.20;;;;;;5131900;27;20515;-38
2021/01/19 05:23:38;;;;;;;9.43;4.70;;;-0.50;97.00;;;;;;5124108;27;20424;-36
2021/01/19 05:26:05;;;;;;;4.97;4.00;;;-0.50;97.00;;;;;;5123522;27;20469;-37
2021/01/19 05:28:42;;;;;;;6.50;4.50;;;-0.70;97.00;;;;;;5120083;27;20190;-35
2021/01/19 05:31:28;;;;;;;7.03;5.33;;;-0.60;97.10;;;;;;5138189;27;20419;-36
2021/01/19 05:33:57;;;;;;;7.03;4.30;;;-0.70;97.20;;;;;;5131076;27;20475;-37
2021/01/19 05:36:36;;;;;;;4.47;4.00;;;-0.70;97.20;;;;;;5117678;28;20441;-37
2021/01/19 05:39:04;;;;;;;5.30;3.93;;;-0.60;97.10;;;;;;5126358;27;20695;-36
2021/01/19 05:41:42;;;;;;;7.20;4.03;;;-0.60;97.00;;;;;;5138260;27;20529;-38
2021/01/19 05:44:29;;;;;;;6.20;4.20;;;-0.60;97.10;;;;;;5129282;27;20460;-36
2021/01/19 05:47:04;;;;;;;5.30;4.20;;;-0.60;97.00;;;;;;5116991;28;20692;-37
2021/01/19 05:49:42;;;;;;;5.80;4.33;;;-0.50;97.00;;;;;;5115480;28;20427;-36
2021/01/19 05:52:11;;;;;;;6.97;4.83;;;-0.50;96.80;;;;;;5114168;28;20692;-37
2021/01/19 05:54:46;;;;;;;7.30;3.83;;;-0.60;96.80;;;;;;5116579;28;20741;-38
2021/01/19 05:57:13;;;;;;;6.23;4.10;;;-0.60;96.80;;;;;;5116839;28;20711;-38
2021/01/19 05:59:44;;;;;;;6.40;4.37;;;-0.60;96.60;;;;;;5115180;28;20409;-38
2021/01/19 06:02:18;;;;;;;6.07;4.53;;;-0.60;96.80;;;;;;5115172;28;20417;-38
2021/01/19 06:04:44;;;;;;;5.30;4.30;;;-0.60;96.70;;;;;;5115698;28;20414;-41
2021/01/19 06:07:12;;;;;;;9.63;4.60;;;-0.70;96.80;;;;;;5117712;28;20414;-37
2021/01/19 06:09:40;;;;;;;6.57;4.20;;;-0.70;96.80;;;;;;5117203;28;20718;-37
2021/01/19 06:12:06;;;;;;;7.83;4.90;;;-0.60;96.80;;;;;;5116563;28;20445;-38
2021/01/19 06:14:32;;;;;;;5.27;4.30;;;-0.70;96.50;;;;;;5115619;28;20526;-37
2021/01/19 06:17:09;;;;;;;11.07;4.40;;;-0.70;96.60;;;;;;5115774;28;20483;-37
2021/01/19 06:19:36;;;;;;;5.27;4.60;;;-0.80;96.70;;;;;;5116646;28;20421;-37
2021/01/19 06:22:10;;;;;;;6.60;4.30;;;-0.90;96.70;;;;;;5116477;28;20681;-38
2021/01/19 06:24:39;;;;;;;6.57;4.40;;;-0.90;96.80;;;;;;5115932;28;20413;-37
2021/01/19 06:27:05;;;;;;;6.73;4.33;;;-0.80;96.90;;;;;;5114798;28;20418;-37
2021/01/19 06:29:32;;;;;;;6.77;4.23;;;-0.90;96.80;;;;;;5117007;28;20753;-37
2021/01/19 06:32:00;;;;;;;6.50;4.53;;;-1.00;96.80;;;;;;5135669;28;20515;-37
2021/01/19 06:34:34;;;;;;;5.20;3.93;;;-1.00;96.90;;;;;;5123050;28;20478;-35
2021/01/19 06:37:01;;;;;;;4.83;4.00;;;-1.00;96.90;;;;;;5137305;27;20420;-38
2021/01/19 06:39:33;;;;;;;5.90;4.30;;;-1.00;96.70;;;;;;5128452;27;20457;-36
2021/01/19 06:42:11;;;;;;;6.20;4.50;;;-1.00;96.70;;;;;;5121298;28;20837;-37
2021/01/19 06:44:40;;;;;;;7.40;4.70;;;-1.00;96.80;;;;;;5120538;28;20413;-37
2021/01/19 06:47:07;;;;;;;6.83;4.23;;;-1.00;96.90;;;;;;5119970;28;20422;-36
2021/01/19 06:49:35;;;;;;;9.20;4.60;;;-1.10;96.80;;;;;;5120478;27;20429;-35
2021/01/19 06:52:21;;;;;;;5.23;4.07;;;-1.10;96.70;;;;;;5118749;28;20452;-37
2021/01/19 06:54:52;;;;;;;8.73;4.77;;;-1.00;96.70;;;;;;5119810;28;20453;-36
2021/01/19 06:58:11;;;;;;;6.77;4.87;;;-1.00;96.60;;;;;;5120099;28;20417;-37
2021/01/19 07:00:41;;;;;;;7.70;4.30;;;-1.20;96.60;;;;;;5129911;27;20409;-37
2021/01/19 07:03:21;;;;;;;7.23;4.47;;;-1.20;96.80;;;;;;5139370;27;20417;-37
2021/01/19 07:05:52;;;;;;;8.43;3.60;;;-1.10;96.80;;;;;;5140578;27;20971;-37
2021/01/19 07:08:21;;;;;;;8.80;5.10;;;-1.10;96.80;;;;;;5139188;27;20428;-37
2021/01/19 07:10:50;;;;;;;9.90;6.30;;;-1.10;96.70;;;;;;5118900;28;20421;-36
2021/01/19 07:13:19;;;;;;;10.77;7.30;;;-1.10;96.70;;;;;;5119518;28;20676;-37
2021/01/19 07:16:09;;;;;;;7.07;4.43;;;-1.00;96.90;;;;;;5120469;28;20473;-36
2021/01/19 07:18:41;;;;;;;9.00;6.40;;;-1.10;96.50;;;;;;5119361;28;20429;-36
2021/01/19 07:21:17;;;;;;;10.03;6.67;;;-1.10;96.60;;;;;;5118669;28;20405;-36
2021/01/19 07:23:46;;;;;;;10.53;6.50;;;-1.10;96.50;;;;;;5118218;28;20508;-36
2021/01/19 07:26:22;;;;;;;8.03;5.60;;;-1.00;96.60;;;;;;5117089;27;20913;-36
2021/01/19 07:28:49;;;;;;;7.70;5.67;;;-1.10;96.60;;;;;;5123611;27;20836;-37
2021/01/19 07:31:20;;;;;;;6.77;5.10;;;-1.00;96.50;;;;;;5137527;27;20518;-36
2021/01/19 07:33:52;;;;;;;7.10;4.80;;;-1.10;96.40;;;;;;5137592;27;20910;-36
2021/01/19 07:36:20;;;;;;;6.67;5.90;;;-1.00;96.40;;;;;;5137837;27;20406;-36
2021/01/19 07:38:47;;;;;;;6.80;5.73;;;-1.00;96.30;;;;;;5132207;27;20826;-37
2021/01/19 07:41:26;;;;;;;7.87;5.90;;;-0.90;96.40;;;;;;5126487;27;20408;-35
2021/01/19 07:43:52;;;;;;;11.03;6.43;;;-1.00;96.50;;;;;;5135907;27;20593;-37
2021/01/19 07:46:28;;;;;;;6.77;5.67;;;-0.90;96.50;;;;;;5136270;27;20476;-36
2021/01/19 07:49:01;;;;;;;7.43;5.40;;;-0.80;96.20;;;;;;5139700;27;20420;-36
2021/01/19 07:51:47;;;;;;;9.03;5.93;;;-0.70;96.00;;;;;;5137116;27;21032;-37
2021/01/19 07:54:14;;;;;;;7.47;6.67;;;-0.60;95.80;;;;;;5139058;27;20413;-38
2021/01/19 07:56:40;;;;;;;10.13;5.53;;;-0.60;95.70;;;;;;5117764;28;20448;-37
2021/01/19 07:59:17;;;;;;;8.87;6.00;;;-0.50;95.60;;;;;;5117972;28;20718;-37
2021/01/19 08:01:54;;;;;;;8.50;6.40;;;-0.30;95.10;;;;;;5118922;28;20490;-37
2021/01/19 08:04:31;;;;;;;6.47;5.23;;;-0.20;95.10;;;;;;5118674;28;20698;-37
2021/01/19 08:06:57;;;;;;;8.67;5.30;;;0.00;94.80;;;;;;5118225;28;20906;-36
2021/01/19 08:10:01;;;;;;;9.40;5.80;;;0.30;94.40;;;;;;5116081;28;20751;-37
2021/01/19 08:12:35;;;;;;;7.97;6.07;;;0.50;93.90;;;;;;5117939;28;20437;-37
2021/01/19 08:15:04;;;;;;;6.97;5.77;;;0.70;93.40;;;;;;5118132;27;20464;-37
2021/01/19 08:17:39;;;;;;;7.67;5.43;;;0.70;92.80;;;;;;5118069;28;20487;-37
2021/01/19 08:20:06;;;;;;;8.37;6.10;;;0.70;92.60;;;;;;5118412;28;20525;-37
2021/01/19 08:22:31;;;;;;;6.93;5.00;;;0.60;92.60;;;;;;5118881;28;20440;-37
2021/01/19 08:25:00;;;;;;;8.90;6.10;;;0.70;93.10;;;;;;5119124;28;20473;-36
2021/01/19 08:27:29;;;;;;;7.40;5.90;;;1.10;92.70;;;;;;5118534;28;20180;-37
2021/01/19 08:29:55;;;;;;;6.07;5.27;;;1.40;92.70;;;;;;5122283;27;20413;-37
2021/01/19 08:32:21;;;;;;;8.03;5.90;;;1.70;91.70;;;;;;5119183;28;20527;-38
2021/01/19 08:34:47;;;;;;;10.03;6.23;;;1.90;90.80;;;;;;5119354;28;20425;-37
2021/01/19 08:37:17;;;;;;;7.33;5.70;;;1.90;90.60;;;;;;5119018;28;20420;-37
2021/01/19 08:39:52;;;;;;;6.60;5.53;;;2.10;90.50;;;;;;5119142;28;20421;-38
2021/01/19 08:42:20;;;;;;;6.40;5.23;;;2.10;90.20;;;;;;5117031;28;20537;-37
2021/01/19 08:44:57;;;;;;;7.40;5.00;;;2.00;90.50;;;;;;5118016;28;20429;-37
2021/01/19 08:47:25;;;;;;;7.30;5.20;;;2.00;90.60;;;;;;5118262;28;20433;-37
2021/01/19 08:49:51;;;;;;;6.40;5.40;;;2.20;90.40;;;;;;5117684;28;20421;-37
2021/01/19 08:52:16;;;;;;;8.70;5.87;;;2.40;90.00;;;;;;5117619;28;20506;-37
2021/01/19 08:54:42;;;;;;;8.17;5.47;;;2.00;89.90;;;;;;5119071;28;20517;-37
2021/01/19 08:57:08;;;;;;;7.47;5.90;;;1.70;90.60;;;;;;5119124;28;20536;-37
2021/01/19 08:59:33;;;;;;;7.67;5.20;;;1.60;91.20;;;;;;5117068;28;20252;-37
2021/01/19 09:01:59;;;;;;;7.53;5.43;;;1.40;91.60;;;;;;5118332;28;20186;-37
2021/01/19 09:04:28;;;;;;;5.40;4.77;;;1.30;91.60;;;;;;5118054;28;20176;-37
2021/01/19 09:07:08;;;;;;;8.13;5.83;;;1.10;92.10;;;;;;5119084;28;20207;-37
2021/01/19 09:09:34;;;;;;;10.43;6.30;;;1.00;92.80;;;;;;5128578;27;20741;-38
2021/01/19 09:12:00;;;;;;;8.97;6.60;;;0.80;92.90;;;;;;5127233;27;20457;-38
2021/01/19 09:14:27;;;;;;;7.70;5.60;;;0.90;93.30;;;;;;5126278;27;20488;-37
2021/01/19 09:16:53;;;;;;;8.90;5.97;;;0.90;93.40;;;;;;5128371;27;21007;-36
2021/01/19 09:19:19;;;;;;;7.40;5.77;;;0.80;93.50;;;;;;5127795;27;20492;-37
2021/01/19 09:21:45;;;;;;;10.87;6.80;;;0.70;93.80;;;;;;5126149;27;20428;-36
2021/01/19 09:24:16;;;;;;;15.40;6.30;;;0.90;94.00;;;;;;5130446;27;20483;-38
2021/01/19 09:26:56;;;;;;;9.10;6.13;;;0.90;93.80;;;;;;5128695;27;20920;-37
2021/01/19 09:29:26;;;;;;;10.60;5.93;;;1.00;93.90;;;;;;5137594;27;20467;-37
2021/01/19 09:31:52;;;;;;;6.57;4.97;;;1.10;93.80;;;;;;5134001;27;20722;-37
2021/01/19 09:34:19;;;;;;;9.20;6.13;;;1.10;93.60;;;;;;5117835;28;20565;-37
2021/01/19 09:36:48;;;;;;;8.77;5.67;;;1.20;93.80;;;;;;5118419;28;20443;-37
2021/01/19 09:39:23;;;;;;;8.57;5.40;;;1.20;93.80;;;;;;5117004;28;20508;-37
2021/01/19 09:41:49;;;;;;;9.43;6.33;;;1.30;93.90;;;;;;5116022;28;20557;-37
2021/01/19 09:44:15;;;;;;;8.03;5.20;;;1.40;93.60;;;;;;5115792;28;20430;-39
2021/01/19 09:46:41;;;;;;;7.60;5.63;;;1.40;93.70;;;;;;5117031;28;20465;-37
2021/01/19 09:49:08;;;;;;;6.90;5.10;;;1.40;93.80;;;;;;5117415;28;20420;-39
2021/01/19 09:51:33;;;;;;;9.83;6.40;;;1.50;93.60;;;;;;5115978;28;20889;-38
2021/01/19 09:54:00;;;;;;;8.33;5.50;;;1.60;93.60;;;;;;5117096;28;20421;-39
2021/01/19 09:56:27;;;;;;;8.27;5.83;;;1.60;93.40;;;;;;5117423;28;20199;-38
2021/01/19 09:59:05;;;;;;;9.60;6.20;;;1.50;93.30;;;;;;5116801;28;20513;-38
2021/01/19 10:01:31;;;;;;;8.90;6.20;;;1.50;93.60;;;;;;5117049;28;20443;-39
2021/01/19 10:03:58;;;;;;;6.93;4.93;;;1.40;93.80;;;;;;5117300;28;20529;-38
2021/01/19 10:06:25;;;;;;;11.77;6.70;;;1.10;94.20;;;;;;5115889;28;20504;-37
2021/01/19 10:08:52;;;;;;;9.93;6.50;;;1.10;94.40;;;;;;5117373;28;20432;-39
2021/01/19 10:11:32;;;;;;;10.73;6.37;;;1.20;94.70;;;;;;5116749;28;20406;-38
2021/01/19 10:14:12;;;;;;;9.70;6.10;;;1.10;94.60;;;;;;5133819;27;20464;-37
2021/01/19 10:16:46;;;;;;;8.30;6.13;;;1.10;94.80;;;;;;5142944;27;20424;-38
2021/01/19 10:19:22;;;;;;;8.33;6.20;;;1.20;95.00;;;;;;5143141;27;20864;-38
2021/01/19 10:21:55;;;;;;;10.27;6.00;;;1.40;94.80;;;;;;5141874;27;20705;-38
2021/01/19 10:24:22;;;;;;;10.10;5.43;;;1.30;94.50;;;;;;5142003;27;20436;-38
2021/01/19 10:27:06;;;;;;;8.03;5.07;;;1.40;94.70;;;;;;5142598;27;20464;-38
2021/01/19 10:29:43;;;;;;;10.90;5.90;;;1.40;94.80;;;;;;5133855;27;20423;-39
2021/01/19 10:32:13;;;;;;;6.63;4.80;;;1.40;94.90;;;;;;5137470;27;20424;-38
2021/01/19 10:34:49;;;;;;;5.77;4.50;;;1.50;94.90;;;;;;5142148;27;20409;-38
2021/01/19 10:37:16;;;;;;;7.40;5.20;;;1.50;95.10;;;;;;5140925;27;20484;-39
2021/01/19 10:39:59;;;;;;;6.97;4.57;;;1.50;94.70;;;;;;5139659;27;20413;-38
2021/01/19 10:42:30;;;;;;;8.03;4.97;;;1.60;94.60;;;;;;5142290;27;20415;-38
2021/01/19 10:45:01;;;;;;;11.17;5.50;;;1.80;94.30;;;;;;5140873;27;20515;-39
2021/01/19 10:47:36;;;;;;;8.10;5.30;;;1.80;94.00;;;;;;5123773;27;20710;-38
2021/01/19 10:50:14;;;;;;;9.23;5.10;;;1.90;94.10;;;;;;5119459;28;20520;-39
2021/01/19 10:52:41;;;;;;;7.90;5.87;;;2.00;94.00;;;;;;5120622;28;20428;-39
2021/01/19 10:55:09;;;;;;;7.37;5.40;;;2.20;93.50;;;;;;5119506;28;20422;-39
2021/01/19 10:57:36;;;;;;;8.27;5.37;;;2.00;93.50;;;;;;5120613;28;20865;-38
2021/01/19 11:00:05;;;;;;;10.23;5.70;;;2.10;93.60;;;;;;5120325;28;20838;-38
2021/01/19 11:02:31;;;;;;;9.00;5.93;;;2.00;93.50;;;;;;5119333;27;20824;-38
2021/01/19 11:04:57;;;;;;;8.70;5.97;;;2.10;93.50;;;;;;5120231;28;20421;-39
2021/01/19 11:07:23;;;;;;;10.13;5.57;;;2.30;93.30;;;;;;5119864;28;20452;-38
2021/01/19 11:09:48;;;;;;;10.43;6.00;;;2.10;93.10;;;;;;5120569;28;20532;-38
2021/01/19 11:12:18;;;;;;;10.13;6.37;;;2.10;93.30;;;;;;5120754;28;20248;-39
2021/01/19 11:14:44;;;;;;;8.63;5.50;;;2.20;93.40;;;;;;5119334;28;20231;-38
2021/01/19 11:17:10;;;;;;;8.20;5.40;;;2.40;93.50;;;;;;5120175;28;20422;-38
2021/01/19 11:19:36;;;;;;;9.60;5.93;;;2.20;92.90;;;;;;5120450;28;20441;-38
2021/01/19 11:22:02;;;;;;;9.03;6.63;;;2.00;93.00;;;;;;5119806;27;20673;-38
2021/01/19 11:24:28;;;;;;;7.83;5.67;;;2.00;93.10;;;;;;5102211;28;20409;-38
2021/01/19 11:26:55;;;;;;;5.97;4.73;;;2.00;93.30;;;;;;5120509;28;20725;-37
2021/01/19 11:29:20;;;;;;;8.03;6.00;;;2.10;93.00;;;;;;5119733;28;20425;-38
2021/01/19 11:31:46;;;;;;;7.57;5.53;;;2.00;93.10;;;;;;5121166;28;20812;-38
2021/01/19 11:34:15;;;;;;;12.37;7.53;;;2.00;93.10;;;;;;5122632;27;20187;-38
2021/01/19 11:36:40;;;;;;;8.80;5.57;;;2.00;93.40;;;;;;5140195;27;20509;-37
2021/01/19 11:39:09;;;;;;;13.40;6.50;;;2.00;93.30;;;;;;5138607;27;20432;-38
2021/01/19 11:41:37;;;;;;;6.97;5.80;;;1.90;93.40;;;;;;5131313;27;20199;-38
2021/01/19 11:44:04;;;;;;;9.50;5.90;;;2.10;93.40;;;;;;5131572;27;20900;-38
2021/01/19 11:46:31;;;;;;;9.03;6.50;;;2.10;93.40;;;;;;5137750;27;21145;-37
2021/01/19 11:48:59;;;;;;;5.43;4.63;;;2.20;93.50;;;;;;5121713;27;20870;-37
2021/01/19 11:51:28;;;;;;;12.87;5.93;;;2.20;93.10;;;;;;5135050;27;20428;-38
2021/01/19 11:53:56;;;;;;;8.10;5.50;;;2.40;93.10;;;;;;5137852;27;20412;-37
2021/01/19 11:56:37;;;;;;;8.37;5.30;;;2.50;93.00;;;;;;5125042;27;20457;-37
2021/01/19 11:59:05;;;;;;;7.90;6.00;;;2.40;93.00;;;;;;5118790;28;20735;-37
2021/01/19 12:01:31;;;;;;;8.13;6.33;;;2.50;93.10;;;;;;5134333;27;20436;-37
2021/01/19 12:03:57;;;;;;;10.50;6.47;;;2.60;92.80;;;;;;5139605;27;20540;-37
2021/01/19 12:06:22;;;;;;;7.27;5.97;;;2.60;92.60;;;;;;5130049;27;20504;-38
2021/01/19 12:08:49;;;;;;;7.73;5.80;;;2.50;92.80;;;;;;5132799;27;20452;-38
2021/01/19 12:11:16;;;;;;;6.53;5.90;;;2.60;92.80;;;;;;5131461;27;20513;-39
2021/01/19 12:13:42;;;;;;;8.50;5.20;;;2.70;92.50;;;;;;5121390;27;20425;-37
2021/01/19 12:16:09;;;;;;;9.00;6.67;;;2.80;92.30;;;;;;5133285;27;20713;-38
2021/01/19 12:18:36;;;;;;;8.73;7.50;;;2.90;92.30;;;;;;5139514;27;20425;-38
2021/01/19 12:21:04;;;;;;;8.17;5.70;;;2.80;92.20;;;;;;5139366;27;20436;-35
2021/01/19 12:23:30;;;;;;;7.37;5.97;;;2.90;92.20;;;;;;5137440;27;20836;-37
2021/01/19 12:25:57;;;;;;;7.93;6.27;;;3.10;91.90;;;;;;5138411;27;20479;-38
2021/01/19 12:28:27;;;;;;;9.50;6.50;;;3.10;91.70;;;;;;5138515;27;20588;-37
2021/01/19 12:30:54;;;;;;;7.93;6.30;;;2.90;91.90;;;;;;5119150;28;20460;-37
2021/01/19 12:33:21;;;;;;;9.20;6.53;;;2.90;92.10;;;;;;5117994;28;20410;-37
2021/01/19 12:35:48;;;;;;;8.20;5.70;;;3.00;92.20;;;;;;5128634;27;20435;-36
2021/01/19 12:38:14;;;;;;;8.00;5.73;;;3.20;92.10;;;;;;5139371;27;20535;-36
2021/01/19 12:40:41;;;;;;;6.93;5.60;;;3.20;91.90;;;;;;5134441;27;20425;-36
2021/01/19 12:43:08;;;;;;;7.80;5.90;;;3.10;92.00;;;;;;5117330;28;20918;-36
2021/01/19 12:45:37;;;;;;;7.17;5.30;;;3.20;92.20;;;;;;5134604;27;20866;-37
2021/01/19 12:48:04;;;;;;;6.90;4.60;;;3.10;92.50;;;;;;5137534;27;20412;-37
2021/01/19 12:50:32;;;;;;;7.47;3.80;;;3.20;92.70;;;;;;5137355;27;20955;-36
2021/01/19 12:53:01;;;;;;;6.60;4.30;;;3.30;92.90;;;;;;5137542;27;20452;-37
2021/01/19 12:55:27;;;;;;;5.87;3.20;;;3.40;92.80;;;;;;5137302;27;20432;-36
2021/01/19 12:57:53;;;;;;;6.30;3.27;;;3.50;92.90;;;;;;5117636;28;20422;-37
2021/01/19 13:00:19;;;;;;;3.60;3.00;;;3.60;92.80;;;;;;5117145;28;20707;-36
2021/01/19 13:02:45;;;;;;;4.80;4.27;;;3.50;92.70;;;;;;5137500;27;20199;-37
2021/01/19 13:05:11;;;;;;;6.27;3.90;;;3.70;92.70;;;;;;5136982;27;20466;-37